Cleveland, TN (37312)

6:41 AM EDT on August 28, 2016 (GMT -0400)
Brookes edge | | Change Station

Elev 994 ft 35.21 °N, 84.88 °W | Updated 3 seconds ago

Partly Cloudy
Partly Cloudy
72.7 °F
Feels Like 76 °F
N
0.7
Wind Variable Wind from NNW
Gusts 2.5 mph

Today
High -- | Low -- °F
--% Chance of Precip.
Yesterday
High -- | Low -- °F
Precip. -- in
Pressure 30.14 in
Visibility 6.0 miles
Clouds Few 5000 ft
Heat Index 76 °F
Dew Point 36 °F
Humidity 26%
Rainfall 0.00 in
Snow Depth Not available.
7:09 AM 8:11 PM
Waning Crescent, 16% visible
METAR KRZR 281035Z AUTO 00000KT 6SM BR FEW050 21/21 A3014 RMK A01
Pressure 30.14 in
Visibility 6.0 miles
Clouds Few 5000 ft
Heat Index 76 °F
Dew Point 36 °F
Humidity 26%
Rainfall 0.00 in
Snow Depth Not available.
7:09 AM 8:11 PM
Waning Crescent, 16% visible
METAR KRZR 281035Z AUTO 00000KT 6SM BR FEW050 21/21 A3014 RMK A01

10-Day Weather Forecast

Almanac

Astronomy

Aug. 28, 2016 Rise Set
Actual Time
Civil Twilight
Nautical Twilight
Astronomical Twilight
Moon
Length of Visible Light
Length of Day
Tomorrow will be .
, % of the Moon is Illuminated

Today's Extremes

State Highs State Lows

Community

WunderPhotos

Upload Photos

1,935,541 photos uploaded!

WunderBlog® & News

Nearby

Air Quality

  Air Quality AQ Index Pollutant
Not available.

Snow Depth

Station Depth Elevation

Earthquake Activity

City Distance Mag. Time & Date
Minimum magnitude displayed is 2.5.

Coastal Water Temperatures

Place Temperature

Stations

Nearby Weather Stations

Station Location Temp. Windchill Dew Point Humidity Wind Precip. Elev Updated Type
                   

Watches & Warnings

There are currently no watches in effect.